Terminal Aerodrome Forecast
Issued by NWS Twin Cities, MN

Home | Current Version | Previous Version | Text Only | Print | Product List | Glossary On
Versions: 1 2 3 4 5 6 7 8 9 10 11 12 13 14 15 16 17 18 19 20 21 22 23 24 25 26 27 28 29
000
FTUS43 KMPX 220500 CCA
TAFMSP
TAF COR
KMSP 220559Z 2206/2312 15010KT P6SM BKN150
     FM220800 30015KT P6SM VCSH SCT040 BKN100
     FM221000 23010KT P6SM BKN100
     FM221300 29013KT P6SM SCT030
     FM221600 31016G24KT P6SM SCT040 SCT250
     FM230000 34007KT P6SM FEW250=

USA.gov is the U.S. government's official web portal to all federal, state and local government web resources and services.